createdAt,value
2022-11-09T00:00:27.690Z,98831.13
2022-11-09T00:04:28.941Z,98832.88
2022-11-09T00:08:30.286Z,98833.81
2022-11-09T00:12:31.564Z,98836.47
2022-11-09T00:16:32.952Z,98843.53
2022-11-09T00:20:34.292Z,98843.56
2022-11-09T00:24:35.598Z,98841.00
2022-11-09T00:28:37.063Z,98844.44
2022-11-09T00:36:48.695Z,98828.75
2022-11-09T00:40:49.955Z,98821.81
2022-11-09T00:44:51.223Z,98822.66
2022-11-09T00:48:54.204Z,98813.97
2022-11-09T00:52:55.659Z,98818.38
2022-11-09T00:56:56.935Z,98811.44
2022-11-09T01:00:58.828Z,98791.50
2022-11-09T01:05:00.181Z,98797.56
2022-11-09T01:09:01.503Z,98796.69
2022-11-09T01:13:02.790Z,98794.09
2022-11-09T01:17:04.291Z,98795.88
2022-11-09T01:21:06.993Z,98794.13
2022-11-09T01:25:08.478Z,98782.84
2022-11-09T01:29:09.949Z,98765.47
2022-11-09T01:33:12.146Z,98761.16
2022-11-09T01:37:13.424Z,98743.78
2022-11-09T01:41:20.175Z,98743.78
2022-11-09T01:45:23.080Z,98763.81
2022-11-09T01:49:31.503Z,98755.13
2022-11-09T01:53:34.621Z,98751.72
2022-11-09T01:57:40.933Z,98746.53
2022-11-09T02:01:43.022Z,98743.94
2022-11-09T02:05:44.667Z,98743.94
2022-11-09T02:09:51.403Z,98739.53
2022-11-09T02:13:55.652Z,98734.38
2022-11-09T02:17:57.241Z,98749.09
2022-11-09T02:21:58.573Z,98748.25
2022-11-09T02:26:01.475Z,98752.59
2022-11-09T02:30:04.620Z,98769.13
2022-11-09T02:34:08.382Z,98776.91
2022-11-09T02:38:10.819Z,98771.69
2022-11-09T02:42:19.944Z,98776.03
2022-11-09T02:46:23.678Z,98785.66
2022-11-09T02:50:24.976Z,98786.47
2022-11-09T02:54:26.270Z,98780.38
2022-11-09T02:58:27.689Z,98789.81
2022-11-09T03:02:28.987Z,98787.25
2022-11-09T03:06:36.475Z,98788.97
2022-11-09T03:10:37.851Z,98773.28
2022-11-09T03:14:39.111Z,98770.69
2022-11-09T03:18:40.492Z,98766.38
2022-11-09T03:22:41.729Z,98762.00
2022-11-09T03:26:42.995Z,98776.78
2022-11-09T03:30:44.240Z,98763.84
2022-11-09T03:34:45.579Z,98775.13
2022-11-09T03:38:46.828Z,98789.91
2022-11-09T03:42:48.792Z,98790.78
2022-11-09T03:46:50.197Z,98791.63
2022-11-09T03:50:51.654Z,98788.97
2022-11-09T03:54:52.964Z,98792.44
2022-11-09T03:58:54.271Z,98785.50
2022-11-09T04:02:55.992Z,98789.00
2022-11-09T04:06:57.388Z,98784.66
2022-11-09T04:10:58.661Z,98784.69
2022-11-09T04:15:00.182Z,98765.59
2022-11-09T04:19:01.451Z,98760.44
2022-11-09T04:23:04.712Z,98771.75
2022-11-09T04:27:06.440Z,98772.66
2022-11-09T04:31:07.736Z,98782.28
2022-11-09T04:35:09.056Z,98790.13
2022-11-09T04:39:11.661Z,98794.50
2022-11-09T04:43:13.758Z,98791.91
2022-11-09T04:47:15.027Z,98792.81
2022-11-09T04:51:16.515Z,98794.56
2022-11-09T04:55:17.929Z,98794.56
2022-11-09T04:59:19.208Z,98758.09
2022-11-09T05:03:20.934Z,98752.97
2022-11-09T05:07:22.515Z,98748.69
2022-11-09T05:11:23.840Z,98763.50
2022-11-09T05:15:25.235Z,98741.00
2022-11-09T05:19:26.875Z,98740.16
2022-11-09T05:23:46.971Z,98781.91
2022-11-09T05:27:48.276Z,98789.81
2022-11-09T05:31:52.411Z,98768.13
2022-11-09T05:35:54.572Z,98773.31
2022-11-09T05:39:55.826Z,98776.78
2022-11-09T05:43:57.140Z,98774.25
2022-11-09T05:47:58.382Z,98784.66
2022-11-09T05:51:59.677Z,98780.31
2022-11-09T05:56:06.313Z,98780.31
2022-11-09T06:00:10.921Z,98786.38
2022-11-09T06:04:12.546Z,98785.56
2022-11-09T06:08:14.626Z,98796.06
2022-11-09T06:12:15.939Z,98796.97
2022-11-09T06:16:17.479Z,98806.53
2022-11-09T06:20:18.776Z,98815.28
2022-11-09T06:24:20.156Z,98811.81
2022-11-09T06:28:21.458Z,98821.38
2022-11-09T06:32:22.771Z,98829.22
2022-11-09T06:36:24.119Z,98831.03
2022-11-09T06:40:26.106Z,98831.06
2022-11-09T06:44:27.374Z,98840.66
2022-11-09T06:48:29.000Z,98845.88
2022-11-09T06:52:30.311Z,98839.84
2022-11-09T06:56:31.591Z,98852.03
2022-11-09T07:00:32.975Z,98853.88
2022-11-09T07:04:34.388Z,98863.53
2022-11-09T07:08:35.701Z,98870.50
2022-11-09T07:12:37.018Z,98869.72
2022-11-09T07:16:38.285Z,98863.72
2022-11-09T07:20:40.050Z,98871.56
2022-11-09T07:24:41.354Z,98862.03
2022-11-09T07:28:42.651Z,98873.31
2022-11-09T07:33:08.192Z,98871.59
2022-11-09T07:37:05.373Z,98881.09
2022-11-09T07:41:08.188Z,98866.34
2022-11-09T07:45:11.987Z,98888.06
2022-11-09T07:49:14.074Z,98901.88
2022-11-09T07:53:16.603Z,98892.16
2022-11-09T07:57:18.897Z,98909.34
2022-11-09T08:01:20.317Z,98923.00
2022-11-09T08:05:21.965Z,98910.75
2022-11-09T08:09:23.548Z,98923.69
2022-11-09T08:13:25.158Z,98932.28
2022-11-09T08:17:37.723Z,98926.19
2022-11-09T08:21:44.065Z,98926.16
2022-11-09T08:25:47.255Z,98940.84
2022-11-09T08:34:17.203Z,98943.34
2022-11-09T08:42:36.801Z,98933.72
2022-11-09T08:46:41.228Z,98945.75
2022-11-09T08:50:42.879Z,98939.59
2022-11-09T08:54:44.235Z,98948.94
2022-11-09T08:58:46.440Z,98952.25
2022-11-09T09:02:47.939Z,98952.13
2022-11-09T09:06:49.380Z,98954.91
2022-11-09T09:10:50.840Z,98958.09
2022-11-09T09:14:52.327Z,98963.06
2022-11-09T09:18:53.616Z,98973.50
2022-11-09T09:22:57.493Z,98969.16
2022-11-09T09:26:58.809Z,98968.72
2022-11-09T09:31:00.959Z,98965.28
2022-11-09T09:35:02.322Z,98973.50
2022-11-09T09:39:03.890Z,98972.53
2022-11-09T09:43:05.162Z,98972.59
2022-11-09T09:47:14.119Z,98969.47
2022-11-09T09:51:35.942Z,98980.22
2022-11-09T09:55:53.084Z,98989.88
2022-11-09T10:00:11.375Z,99005.88
2022-11-09T10:04:34.210Z,98993.59
2022-11-09T10:13:19.641Z,99004.03
2022-11-09T10:17:44.433Z,98992.56
2022-11-09T10:22:03.872Z,99000.75
2022-11-09T10:35:48.158Z,99006.09
2022-11-09T10:54:24.162Z,98993.31
2022-11-09T10:58:55.108Z,98979.19
2022-11-09T11:08:06.683Z,98984.66
2022-11-09T11:16:56.677Z,98974.31
2022-11-09T11:21:27.375Z,98987.47
2022-11-09T11:25:59.311Z,98990.25
2022-11-09T11:30:40.552Z,98986.25
2022-11-09T11:35:00.745Z,98986.56
2022-11-09T11:44:56.859Z,98978.09
2022-11-09T11:49:44.608Z,98978.97
2022-11-09T11:54:27.734Z,98983.34
2022-11-09T12:03:43.458Z,98988.66
2022-11-09T12:18:34.657Z,98987.38
2022-11-09T12:47:54.803Z,98986.41
2022-11-09T12:52:21.212Z,98995.22
2022-11-09T12:56:27.663Z,98997.81
2022-11-09T13:00:35.099Z,98997.88
2022-11-09T13:04:37.533Z,98998.00
2022-11-09T13:08:40.474Z,99001.41
2022-11-09T13:12:50.825Z,98999.88
2022-11-09T13:16:53.481Z,98996.66
2022-11-09T13:20:57.198Z,99001.97
2022-11-09T13:25:03.747Z,98997.59
2022-11-09T13:29:23.801Z,98998.53
2022-11-09T13:59:07.858Z,98999.97
2022-11-09T14:13:42.485Z,99026.25
2022-11-09T14:23:13.066Z,99021.09
2022-11-09T14:27:21.415Z,99030.69
2022-11-09T14:31:26.517Z,99026.44
2022-11-09T14:35:31.489Z,99035.13
2022-11-09T14:39:37.262Z,99039.47
2022-11-09T14:43:40.910Z,99038.66
2022-11-09T14:47:44.772Z,99043.94
2022-11-09T14:51:48.303Z,99046.50
2022-11-09T14:55:50.568Z,99045.81
2022-11-09T14:59:51.954Z,99051.06
2022-11-09T15:04:12.314Z,99061.44
2022-11-09T15:08:19.898Z,99061.53
2022-11-09T15:12:21.688Z,99067.59
2022-11-09T15:16:24.402Z,99057.31
2022-11-09T15:20:28.094Z,99061.75
2022-11-09T15:24:46.142Z,99067.09
2022-11-09T15:28:48.078Z,99068.03
2022-11-09T15:32:49.401Z,99072.41
2022-11-09T15:36:57.557Z,99069.91
2022-11-09T15:40:58.933Z,99078.66
2022-11-09T15:45:11.486Z,99077.03
2022-11-09T15:59:59.276Z,99099.03
2022-11-09T16:04:59.796Z,99107.88
2022-11-09T16:10:28.046Z,99111.50
2022-11-09T16:19:22.798Z,99133.44
2022-11-09T16:33:20.129Z,99158.88
2022-11-09T16:37:28.855Z,99169.34
2022-11-09T16:41:40.713Z,99178.09
2022-11-09T16:46:04.359Z,99179.81
2022-11-09T16:50:26.949Z,99184.25
2022-11-09T16:58:57.816Z,99215.56
2022-11-09T17:03:04.752Z,99218.19
2022-11-09T17:07:18.213Z,99224.31
2022-11-09T17:11:29.979Z,99233.91
2022-11-09T17:15:41.386Z,99236.53
2022-11-09T17:19:46.063Z,99235.72
2022-11-09T17:23:53.133Z,99240.06
2022-11-09T17:27:59.903Z,99253.19
2022-11-09T17:32:04.180Z,99257.56
2022-11-09T17:36:22.491Z,99268.00
2022-11-09T17:40:32.296Z,99272.41
2022-11-09T17:44:36.069Z,99276.75
2022-11-09T17:48:45.753Z,99286.34
2022-11-09T17:52:48.711Z,99295.06
2022-11-09T17:56:52.113Z,99299.38
2022-11-09T18:00:58.239Z,99295.91
2022-11-09T18:05:11.008Z,99304.66
2022-11-09T18:09:40.713Z,99300.44
2022-11-09T18:13:48.360Z,99310.91
2022-11-09T18:23:22.752Z,99320.63
2022-11-09T18:27:30.724Z,99324.16
2022-11-09T18:31:33.185Z,99329.44
2022-11-09T18:44:47.783Z,99353.84
2022-11-09T18:58:21.960Z,99365.25
2022-11-09T19:02:24.705Z,99361.81
2022-11-09T19:06:28.034Z,99365.34
2022-11-09T19:10:32.817Z,99370.56
2022-11-09T20:10:32.030Z,99439.03
2022-11-09T20:14:34.044Z,99439.91
2022-11-09T20:22:55.855Z,99448.53
2022-11-09T20:48:54.925Z,99496.88
2022-11-09T20:52:57.231Z,99492.50
2022-11-09T20:56:58.850Z,99498.53
2022-11-09T21:01:08.578Z,99505.44
2022-11-09T21:05:10.979Z,99513.16
2022-11-09T21:09:14.421Z,99509.72
2022-11-09T21:13:19.166Z,99521.78
2022-11-09T21:17:21.558Z,99523.50
2022-11-09T21:21:24.052Z,99527.75
2022-11-09T21:25:45.387Z,99526.00
2022-11-09T21:29:53.156Z,99544.06
2022-11-09T21:33:54.772Z,99548.34
2022-11-09T21:37:56.800Z,99556.06
2022-11-09T21:41:58.939Z,99563.75
2022-11-09T21:46:00.224Z,99572.31
2022-11-09T21:50:02.035Z,99577.47
2022-11-09T21:54:03.609Z,99586.03
2022-11-09T21:58:05.070Z,99585.16
2022-11-09T22:02:06.395Z,99598.06
2022-11-09T22:06:08.499Z,99614.41
2022-11-09T22:10:11.104Z,99618.63
2022-11-09T22:14:32.414Z,99623.78
2022-11-09T22:18:52.704Z,99624.63
2022-11-09T22:22:53.966Z,99634.06
2022-11-09T22:26:55.226Z,99627.94
2022-11-09T22:30:56.583Z,99635.63
2022-11-09T22:34:57.855Z,99640.69
2022-11-09T22:38:59.486Z,99647.50
2022-11-09T22:43:00.819Z,99654.22
2022-11-09T22:47:02.281Z,99657.63
2022-11-09T22:51:04.081Z,99662.72
2022-11-09T22:55:06.383Z,99668.69
2022-11-09T22:59:07.700Z,99664.31
2022-11-09T23:03:09.011Z,99674.59
2022-11-09T23:07:10.391Z,99682.31
2022-11-09T23:11:13.408Z,99685.69
2022-11-09T23:15:14.772Z,99689.00
2022-11-09T23:19:16.233Z,99697.53
2022-11-09T23:23:17.591Z,99702.59
2022-11-09T23:27:19.015Z,99698.41
2022-11-09T23:31:24.142Z,99706.19
2022-11-09T23:35:25.568Z,99703.63
2022-11-09T23:39:26.879Z,99709.63
2022-11-09T23:43:28.454Z,99712.16
2022-11-09T23:47:29.782Z,99714.63
2022-11-09T23:51:31.200Z,99712.00
2022-11-09T23:55:32.854Z,99710.19
2022-11-09T23:59:34.251Z,99715.28
